ETD465 OKKK-OMDW
Flight info
| Callsign | ETD465 |
|---|---|
| Flight time | 1h 16m |
| Altitude | 37000 |
| Route | SESRU M677 LUDAM G666 ELOVU |
| Aircraft | A21N/M-SDE2E3FGHIRWXY/LB1 |
Departure
| Time | 2026-05-04 16:28 |
|---|---|
| Airport | Kuwait International Airport (OKKK) |
Arrival
| Time | 2026-05-04 17:44 |
|---|---|
| Airport | Al Maktoum International Airport (OMDW) |
| Time | Latitude | Longitude | Altitude | Speed | Heading |
|---|---|---|---|---|---|
| 2026-05-04 16:03 | 29.23768 | 47.97172 | 170 ft | 0 kts | 67° |
| 2026-05-04 16:18 | 29.23767 | 47.97171 | 170 ft | 2 kts | 67° |
| 2026-05-04 16:18 | 29.23761 | 47.97154 | 170 ft | 2 kts | 64° |
| 2026-05-04 16:19 | 29.23733 | 47.97108 | 170 ft | 2 kts | 34° |
| 2026-05-04 16:19 | 29.23708 | 47.97105 | 170 ft | 1 kts | 338° |
| 2026-05-04 16:20 | 29.23721 | 47.97098 | 170 ft | 0 kts | 336° |
| 2026-05-04 16:22 | 29.23739 | 47.97089 | 170 ft | 3 kts | 336° |
| 2026-05-04 16:23 | 29.23804 | 47.97007 | 170 ft | 7 kts | 263° |
| 2026-05-04 16:24 | 29.23659 | 47.96648 | 168 ft | 10 kts | 253° |
| 2026-05-04 16:25 | 29.23754 | 47.96560 | 167 ft | 15 kts | 336° |
| 2026-05-04 16:26 | 29.24077 | 47.96287 | 164 ft | 11 kts | 245° |
| 2026-05-04 16:26 | 29.23828 | 47.96271 | 163 ft | 48 kts | 155° |
| 2026-05-04 16:27 | 29.22560 | 47.96947 | 166 ft | 154 kts | 155° |
| 2026-05-04 16:28 | 29.19266 | 47.98686 | 1330 ft | 173 kts | 148° |
| 2026-05-04 16:28 | 29.17782 | 48.02036 | 2212 ft | 203 kts | 108° |
| 2026-05-04 16:29 | 29.15417 | 48.09183 | 3225 ft | 269 kts | 111° |
| 2026-05-04 16:30 | 29.15061 | 48.15657 | 4763 ft | 277 kts | 89° |
| 2026-05-04 16:31 | 29.14720 | 48.20076 | 5809 ft | 283 kts | 107° |
| 2026-05-04 16:31 | 29.12410 | 48.26420 | 7387 ft | 294 kts | 116° |
| 2026-05-04 16:32 | 29.09599 | 48.32783 | 9243 ft | 305 kts | 117° |
| 2026-05-04 16:33 | 29.07669 | 48.37220 | 10222 ft | 324 kts | 117° |
| 2026-05-04 16:33 | 29.05680 | 48.41851 | 10635 ft | 357 kts | 117° |
| 2026-05-04 16:34 | 29.03409 | 48.47157 | 11145 ft | 382 kts | 117° |
| 2026-05-04 16:34 | 29.02709 | 48.48794 | 11422 ft | 385 kts | 117° |
| 2026-05-04 16:35 | 29.00099 | 48.54888 | 12494 ft | 394 kts | 117° |
| 2026-05-04 16:35 | 28.96444 | 48.63395 | 14041 ft | 405 kts | 118° |
| 2026-05-04 16:36 | 28.95196 | 48.66295 | 14544 ft | 408 kts | 118° |
| 2026-05-04 16:36 | 28.92664 | 48.72168 | 15534 ft | 415 kts | 118° |
| 2026-05-04 16:37 | 28.90090 | 48.78130 | 16513 ft | 421 kts | 118° |
| 2026-05-04 16:37 | 28.88791 | 48.81136 | 16945 ft | 424 kts | 118° |
| 2026-05-04 16:37 | 28.86170 | 48.87189 | 17707 ft | 431 kts | 118° |
| 2026-05-04 16:38 | 28.83477 | 48.93404 | 18426 ft | 437 kts | 118° |
| 2026-05-04 16:39 | 28.79426 | 49.02736 | 19409 ft | 442 kts | 119° |
| 2026-05-04 16:39 | 28.76681 | 49.09047 | 20073 ft | 445 kts | 119° |
| 2026-05-04 16:40 | 28.73916 | 49.15394 | 20799 ft | 448 kts | 119° |
| 2026-05-04 16:40 | 28.71125 | 49.21789 | 21515 ft | 452 kts | 119° |
| 2026-05-04 16:41 | 28.68321 | 49.28205 | 22255 ft | 457 kts | 119° |
| 2026-05-04 16:41 | 28.64035 | 49.37990 | 23312 ft | 464 kts | 120° |
| 2026-05-04 16:42 | 28.59578 | 49.47890 | 24164 ft | 470 kts | 123° |
| 2026-05-04 16:43 | 28.56200 | 49.54303 | 24680 ft | 475 kts | 126° |
| 2026-05-04 16:43 | 28.52717 | 49.60684 | 25184 ft | 480 kts | 126° |
| 2026-05-04 16:43 | 28.50956 | 49.63932 | 25441 ft | 482 kts | 126° |
| 2026-05-04 16:44 | 28.43897 | 49.77038 | 26386 ft | 490 kts | 128° |
| 2026-05-04 16:45 | 28.39400 | 49.82763 | 26818 ft | 482 kts | 147° |
| 2026-05-04 16:46 | 28.31203 | 49.89428 | 27470 ft | 483 kts | 150° |
| 2026-05-04 16:46 | 28.25633 | 49.93697 | 28060 ft | 482 kts | 151° |
| 2026-05-04 16:47 | 28.20057 | 49.97939 | 28610 ft | 482 kts | 152° |
| 2026-05-04 16:47 | 28.14506 | 50.02146 | 29063 ft | 484 kts | 152° |
| 2026-05-04 16:48 | 28.06112 | 50.08499 | 29872 ft | 483 kts | 152° |
| 2026-05-04 16:48 | 28.03318 | 50.10611 | 30096 ft | 483 kts | 152° |
| 2026-05-04 16:49 | 27.97729 | 50.14833 | 30540 ft | 483 kts | 152° |
| 2026-05-04 16:49 | 27.92142 | 50.19048 | 30991 ft | 482 kts | 152° |
| 2026-05-04 16:50 | 27.86591 | 50.23229 | 31383 ft | 482 kts | 153° |
| 2026-05-04 16:50 | 27.81012 | 50.27426 | 31834 ft | 481 kts | 153° |
| 2026-05-04 16:51 | 27.75450 | 50.31603 | 32275 ft | 480 kts | 153° |
| 2026-05-04 16:51 | 27.72665 | 50.33691 | 32481 ft | 479 kts | 153° |
| 2026-05-04 16:51 | 27.67097 | 50.37864 | 32805 ft | 480 kts | 153° |
| 2026-05-04 16:52 | 27.61507 | 50.42055 | 32812 ft | 488 kts | 152° |
| 2026-05-04 16:53 | 27.52998 | 50.48573 | 32812 ft | 499 kts | 152° |
| 2026-05-04 16:54 | 27.41519 | 50.57392 | 32814 ft | 499 kts | 152° |
| 2026-05-04 16:55 | 27.24294 | 50.70533 | 32807 ft | 499 kts | 152° |
| 2026-05-04 16:56 | 27.10538 | 50.82572 | 32809 ft | 509 kts | 141° |
| 2026-05-04 16:57 | 27.03047 | 50.91043 | 32804 ft | 509 kts | 139° |
| 2026-05-04 16:58 | 26.96657 | 51.00656 | 32801 ft | 519 kts | 126° |
| 2026-05-04 16:58 | 26.94731 | 51.04095 | 32801 ft | 520 kts | 126° |
| 2026-05-04 17:00 | 26.85280 | 51.24481 | 32798 ft | 527 kts | 111° |
| 2026-05-04 17:01 | 26.79091 | 51.45268 | 32791 ft | 527 kts | 110° |
| 2026-05-04 17:02 | 26.74430 | 51.60770 | 32792 ft | 527 kts | 110° |
| 2026-05-04 17:03 | 26.70916 | 51.72452 | 32782 ft | 528 kts | 110° |
| 2026-05-04 17:03 | 26.67419 | 51.84115 | 32786 ft | 527 kts | 110° |
| 2026-05-04 17:04 | 26.62581 | 51.99597 | 32783 ft | 527 kts | 112° |
| 2026-05-04 17:05 | 26.57535 | 52.14937 | 32771 ft | 528 kts | 112° |
| 2026-05-04 17:06 | 26.53755 | 52.26475 | 32774 ft | 527 kts | 112° |
| 2026-05-04 17:07 | 26.50396 | 52.36710 | 32771 ft | 527 kts | 112° |
| 2026-05-04 17:07 | 26.47456 | 52.45645 | 32766 ft | 527 kts | 112° |
| 2026-05-04 17:08 | 26.43654 | 52.57163 | 32762 ft | 527 kts | 111° |
| 2026-05-04 17:09 | 26.41116 | 52.64833 | 32763 ft | 526 kts | 111° |
| 2026-05-04 17:09 | 26.38573 | 52.72505 | 32763 ft | 526 kts | 111° |
| 2026-05-04 17:10 | 26.32207 | 52.91631 | 32758 ft | 527 kts | 112° |
| 2026-05-04 17:11 | 26.29646 | 52.99293 | 32432 ft | 526 kts | 111° |
| 2026-05-04 17:11 | 26.27103 | 53.06884 | 31948 ft | 527 kts | 111° |
| 2026-05-04 17:12 | 26.25819 | 53.10710 | 31705 ft | 527 kts | 111° |
| 2026-05-04 17:12 | 26.23243 | 53.18378 | 31228 ft | 529 kts | 111° |
| 2026-05-04 17:13 | 26.19122 | 53.29780 | 30739 ft | 528 kts | 121° |
| 2026-05-04 17:14 | 26.12529 | 53.39356 | 30461 ft | 520 kts | 130° |
| 2026-05-04 17:14 | 26.10331 | 53.42558 | 30131 ft | 521 kts | 129° |
| 2026-05-04 17:14 | 26.06677 | 53.47909 | 29512 ft | 521 kts | 130° |
| 2026-05-04 17:15 | 26.04466 | 53.51091 | 29100 ft | 517 kts | 130° |
| 2026-05-04 17:15 | 25.99325 | 53.58355 | 28013 ft | 515 kts | 130° |
| 2026-05-04 17:16 | 25.95591 | 53.63566 | 27169 ft | 511 kts | 130° |
| 2026-05-04 17:16 | 25.89059 | 53.72630 | 25728 ft | 495 kts | 130° |
| 2026-05-04 17:17 | 25.86914 | 53.75600 | 25266 ft | 489 kts | 130° |
| 2026-05-04 17:17 | 25.80561 | 53.84377 | 23897 ft | 486 kts | 130° |
| 2026-05-04 17:18 | 25.78447 | 53.87290 | 23458 ft | 483 kts | 130° |
| 2026-05-04 17:18 | 25.74288 | 53.93023 | 22453 ft | 475 kts | 130° |
| 2026-05-04 17:19 | 25.70176 | 53.98686 | 21335 ft | 468 kts | 129° |
| 2026-05-04 17:19 | 25.66117 | 54.04268 | 20134 ft | 462 kts | 129° |
| 2026-05-04 17:20 | 25.62110 | 54.09770 | 18960 ft | 454 kts | 129° |
| 2026-05-04 17:20 | 25.58174 | 54.15171 | 17811 ft | 447 kts | 128° |
| 2026-05-04 17:20 | 25.56227 | 54.17841 | 17183 ft | 444 kts | 128° |
| 2026-05-04 17:21 | 25.52413 | 54.23065 | 15973 ft | 432 kts | 128° |
| 2026-05-04 17:21 | 25.48714 | 54.28130 | 14941 ft | 415 kts | 128° |
| 2026-05-04 17:22 | 25.46914 | 54.30594 | 14431 ft | 407 kts | 128° |
| 2026-05-04 17:22 | 25.45149 | 54.33009 | 13935 ft | 400 kts | 128° |
| 2026-05-04 17:23 | 25.40033 | 54.40001 | 12338 ft | 382 kts | 127° |
| 2026-05-04 17:23 | 25.38369 | 54.42273 | 11811 ft | 377 kts | 127° |
| 2026-05-04 17:23 | 25.35112 | 54.46716 | 10768 ft | 367 kts | 127° |
| 2026-05-04 17:24 | 25.33509 | 54.48899 | 10259 ft | 363 kts | 127° |
| 2026-05-04 17:24 | 25.28995 | 54.55028 | 8697 ft | 323 kts | 127° |
| 2026-05-04 17:25 | 25.27592 | 54.56929 | 8168 ft | 314 kts | 127° |
| 2026-05-04 17:25 | 25.24896 | 54.60585 | 7319 ft | 301 kts | 127° |
| 2026-05-04 17:26 | 25.22296 | 54.64113 | 6734 ft | 288 kts | 127° |
| 2026-05-04 17:26 | 25.18566 | 54.69169 | 6047 ft | 282 kts | 127° |
| 2026-05-04 17:27 | 25.16103 | 54.72509 | 5599 ft | 278 kts | 127° |
| 2026-05-04 17:27 | 25.13667 | 54.75808 | 5227 ft | 275 kts | 127° |
| 2026-05-04 17:28 | 25.11282 | 54.79036 | 4848 ft | 270 kts | 127° |
| 2026-05-04 17:29 | 25.07745 | 54.83821 | 4286 ft | 268 kts | 127° |
| 2026-05-04 17:29 | 25.04623 | 54.88891 | 3710 ft | 264 kts | 119° |
| 2026-05-04 17:30 | 25.01843 | 54.94011 | 3137 ft | 251 kts | 119° |
| 2026-05-04 17:31 | 25.00039 | 54.97295 | 2772 ft | 248 kts | 120° |
| 2026-05-04 17:31 | 24.97528 | 55.01812 | 2273 ft | 210 kts | 121° |
| 2026-05-04 17:32 | 24.96130 | 55.04334 | 1941 ft | 180 kts | 120° |
| 2026-05-04 17:33 | 24.94156 | 55.07878 | 1568 ft | 181 kts | 117° |
| 2026-05-04 17:33 | 24.93542 | 55.09095 | 1401 ft | 183 kts | 117° |
| 2026-05-04 17:34 | 24.91559 | 55.12699 | 582 ft | 188 kts | 120° |
| 2026-05-04 17:34 | 24.90874 | 55.13917 | 289 ft | 184 kts | 121° |
| 2026-05-04 17:35 | 24.89123 | 55.17069 | 467 ft | 167 kts | 123° |
| 2026-05-04 17:35 | 24.87625 | 55.19618 | 1320 ft | 230 kts | 126° |
| 2026-05-04 17:35 | 24.86433 | 55.20858 | 1832 ft | 240 kts | 150° |
| 2026-05-04 17:36 | 24.84926 | 55.21635 | 2362 ft | 240 kts | 160° |
| 2026-05-04 17:36 | 24.83361 | 55.22328 | 2780 ft | 246 kts | 162° |
| 2026-05-04 17:36 | 24.81675 | 55.22675 | 2959 ft | 247 kts | 185° |
| 2026-05-04 17:36 | 24.79970 | 55.22511 | 2969 ft | 246 kts | 190° |
| 2026-05-04 17:37 | 24.78270 | 55.22659 | 2968 ft | 247 kts | 161° |
| 2026-05-04 17:37 | 24.76753 | 55.23577 | 2974 ft | 253 kts | 139° |
| 2026-05-04 17:37 | 24.75652 | 55.25089 | 2920 ft | 255 kts | 117° |
| 2026-05-04 17:37 | 24.75173 | 55.26939 | 2667 ft | 253 kts | 87° |
| 2026-05-04 17:38 | 24.75393 | 55.28843 | 2530 ft | 250 kts | 73° |
| 2026-05-04 17:38 | 24.75817 | 55.30686 | 2407 ft | 247 kts | 72° |
| 2026-05-04 17:38 | 24.76329 | 55.32486 | 2300 ft | 245 kts | 60° |
| 2026-05-04 17:38 | 24.77381 | 55.33892 | 2113 ft | 233 kts | 28° |
| 2026-05-04 17:39 | 24.80196 | 55.34724 | 1965 ft | 194 kts | 341° |
| 2026-05-04 17:39 | 24.81165 | 55.33909 | 1997 ft | 175 kts | 295° |
| 2026-05-04 17:39 | 24.81438 | 55.32605 | 1990 ft | 175 kts | 281° |
| 2026-05-04 17:40 | 24.81706 | 55.31314 | 1988 ft | 170 kts | 286° |
| 2026-05-04 17:40 | 24.82105 | 55.30097 | 1973 ft | 169 kts | 294° |
| 2026-05-04 17:40 | 24.82637 | 55.28948 | 1968 ft | 168 kts | 298° |
| 2026-05-04 17:40 | 24.83222 | 55.27840 | 1977 ft | 167 kts | 300° |
| 2026-05-04 17:41 | 24.83809 | 55.26769 | 1951 ft | 158 kts | 301° |
| 2026-05-04 17:41 | 24.84371 | 55.25769 | 1755 ft | 150 kts | 302° |
| 2026-05-04 17:41 | 24.84901 | 55.24810 | 1460 ft | 143 kts | 301° |
| 2026-05-04 17:41 | 24.85400 | 55.23867 | 1316 ft | 142 kts | 300° |
| 2026-05-04 17:42 | 24.85875 | 55.22926 | 1139 ft | 139 kts | 300° |
| 2026-05-04 17:42 | 24.86369 | 55.22003 | 1060 ft | 140 kts | 302° |
| 2026-05-04 17:42 | 24.86891 | 55.21116 | 876 ft | 137 kts | 302° |
| 2026-05-04 17:42 | 24.87386 | 55.20202 | 723 ft | 140 kts | 301° |
| 2026-05-04 17:43 | 24.87881 | 55.19310 | 511 ft | 135 kts | 303° |
| 2026-05-04 17:43 | 24.88366 | 55.18456 | 294 ft | 127 kts | 302° |
| 2026-05-04 17:43 | 24.88828 | 55.17614 | 179 ft | 126 kts | 301° |
| 2026-05-04 17:43 | 24.89241 | 55.16867 | 160 ft | 94 kts | 301° |
| 2026-05-04 17:44 | 24.89514 | 55.16371 | 160 ft | 48 kts | 300° |
| 2026-05-04 17:44 | 24.89568 | 55.16107 | 162 ft | 23 kts | 271° |
| 2026-05-04 17:44 | 24.89570 | 55.15950 | 162 ft | 16 kts | 271° |
| 2026-05-04 17:44 | 24.89547 | 55.15855 | 161 ft | 13 kts | 232° |
| 2026-05-04 17:45 | 24.89478 | 55.15793 | 162 ft | 13 kts | 212° |
| 2026-05-04 17:45 | 24.89403 | 55.15742 | 162 ft | 13 kts | 211° |
| 2026-05-04 17:45 | 24.89327 | 55.15692 | 162 ft | 13 kts | 211° |
| 2026-05-04 17:45 | 24.89248 | 55.15670 | 162 ft | 12 kts | 152° |
| 2026-05-04 17:46 | 24.89189 | 55.15766 | 162 ft | 16 kts | 120° |
| 2026-05-04 17:46 | 24.89134 | 55.15867 | 162 ft | 12 kts | 121° |
| 2026-05-04 17:46 | 24.89079 | 55.15873 | 162 ft | 9 kts | 212° |
| 2026-05-04 17:46 | 24.89048 | 55.15853 | 163 ft | 0 kts | 210° |